sensor_id;sensor_type;location;lat;lon;timestamp;P1;durP1;ratioP1;P2;durP2;ratioP2
21148;SDS011;10732;51.472;6.466;2023-05-29T00:00:03;6.07;;;4.35;;
21148;SDS011;10732;51.472;6.466;2023-05-29T00:02:32;6.68;;;4.65;;
21148;SDS011;10732;51.472;6.466;2023-05-29T00:04:58;7.13;;;4.10;;
21148;SDS011;10732;51.472;6.466;2023-05-29T00:07:24;5.70;;;4.00;;
21148;SDS011;10732;51.472;6.466;2023-05-29T00:09:49;9.05;;;4.35;;
21148;SDS011;10732;51.472;6.466;2023-05-29T00:12:15;9.82;;;4.40;;
21148;SDS011;10732;51.472;6.466;2023-05-29T00:14:40;7.05;;;4.70;;
21148;SDS011;10732;51.472;6.466;2023-05-29T00:17:06;8.98;;;4.32;;
21148;SDS011;10732;51.472;6.466;2023-05-29T00:19:31;7.28;;;4.32;;
21148;SDS011;10732;51.472;6.466;2023-05-29T00:21:57;7.68;;;4.30;;
21148;SDS011;10732;51.472;6.466;2023-05-29T00:24:22;10.23;;;4.68;;
21148;SDS011;10732;51.472;6.466;2023-05-29T00:26:48;7.32;;;4.70;;
21148;SDS011;10732;51.472;6.466;2023-05-29T00:29:13;7.63;;;4.90;;
21148;SDS011;10732;51.472;6.466;2023-05-29T00:31:40;10.65;;;5.03;;
21148;SDS011;10732;51.472;6.466;2023-05-29T00:34:05;8.15;;;5.15;;
21148;SDS011;10732;51.472;6.466;2023-05-29T00:36:31;8.27;;;4.95;;
21148;SDS011;10732;51.472;6.466;2023-05-29T00:38:56;9.35;;;5.38;;
21148;SDS011;10732;51.472;6.466;2023-05-29T00:41:22;8.73;;;4.97;;
21148;SDS011;10732;51.472;6.466;2023-05-29T00:43:48;9.45;;;5.60;;
21148;SDS011;10732;51.472;6.466;2023-05-29T00:46:14;6.97;;;5.15;;
21148;SDS011;10732;51.472;6.466;2023-05-29T00:48:43;9.20;;;5.40;;
21148;SDS011;10732;51.472;6.466;2023-05-29T00:51:09;11.63;;;6.07;;
21148;SDS011;10732;51.472;6.466;2023-05-29T00:53:37;8.88;;;5.85;;
21148;SDS011;10732;51.472;6.466;2023-05-29T00:56:04;10.30;;;5.63;;
21148;SDS011;10732;51.472;6.466;2023-05-29T00:58:30;8.63;;;6.10;;
21148;SDS011;10732;51.472;6.466;2023-05-29T01:00:56;9.55;;;5.82;;
21148;SDS011;10732;51.472;6.466;2023-05-29T01:03:22;12.23;;;5.75;;
21148;SDS011;10732;51.472;6.466;2023-05-29T01:05:49;9.85;;;5.82;;
21148;SDS011;10732;51.472;6.466;2023-05-29T01:08:16;12.48;;;6.00;;
21148;SDS011;10732;51.472;6.466;2023-05-29T01:10:42;9.38;;;5.90;;
21148;SDS011;10732;51.472;6.466;2023-05-29T01:13:09;11.60;;;5.53;;
21148;SDS011;10732;51.472;6.466;2023-05-29T01:15:46;12.38;;;6.18;;
21148;SDS011;10732;51.472;6.466;2023-05-29T01:20:48;13.45;;;5.30;;
21148;SDS011;10732;51.472;6.466;2023-05-29T01:29:00;9.57;;;5.13;;
21148;SDS011;10732;51.472;6.466;2023-05-29T01:31:27;11.63;;;4.95;;
21148;SDS011;10732;51.472;6.466;2023-05-29T01:36:20;11.02;;;5.00;;
21148;SDS011;10732;51.472;6.466;2023-05-29T01:38:46;10.40;;;4.40;;
21148;SDS011;10732;51.472;6.466;2023-05-29T01:41:12;10.55;;;4.50;;
21148;SDS011;10732;51.472;6.466;2023-05-29T01:43:39;9.77;;;4.75;;
21148;SDS011;10732;51.472;6.466;2023-05-29T01:46:04;11.80;;;4.35;;
21148;SDS011;10732;51.472;6.466;2023-05-29T01:48:30;7.90;;;4.63;;
21148;SDS011;10732;51.472;6.466;2023-05-29T01:50:56;12.30;;;4.60;;
21148;SDS011;10732;51.472;6.466;2023-05-29T01:53:23;9.93;;;4.22;;
21148;SDS011;10732;51.472;6.466;2023-05-29T01:55:49;17.40;;;4.63;;
21148;SDS011;10732;51.472;6.466;2023-05-29T01:58:16;13.18;;;4.18;;
21148;SDS011;10732;51.472;6.466;2023-05-29T02:00:44;12.18;;;4.13;;
21148;SDS011;10732;51.472;6.466;2023-05-29T02:03:10;12.10;;;3.88;;
21148;SDS011;10732;51.472;6.466;2023-05-29T02:05:36;12.35;;;3.60;;
21148;SDS011;10732;51.472;6.466;2023-05-29T02:08:01;9.52;;;3.97;;
21148;SDS011;10732;51.472;6.466;2023-05-29T02:10:27;13.23;;;4.03;;
21148;SDS011;10732;51.472;6.466;2023-05-29T02:12:52;13.55;;;4.22;;
21148;SDS011;10732;51.472;6.466;2023-05-29T02:15:18;11.95;;;3.67;;
21148;SDS011;10732;51.472;6.466;2023-05-29T02:17:43;12.52;;;3.63;;
21148;SDS011;10732;51.472;6.466;2023-05-29T02:20:09;13.10;;;4.25;;
21148;SDS011;10732;51.472;6.466;2023-05-29T02:22:36;13.73;;;4.03;;
21148;SDS011;10732;51.472;6.466;2023-05-29T02:25:01;11.13;;;3.92;;
21148;SDS011;10732;51.472;6.466;2023-05-29T02:27:27;14.38;;;3.80;;
21148;SDS011;10732;51.472;6.466;2023-05-29T02:29:52;16.02;;;4.30;;
21148;SDS011;10732;51.472;6.466;2023-05-29T02:32:18;13.93;;;3.78;;
21148;SDS011;10732;51.472;6.466;2023-05-29T02:34:43;17.35;;;4.03;;
21148;SDS011;10732;51.472;6.466;2023-05-29T02:37:09;15.50;;;3.90;;
21148;SDS011;10732;51.472;6.466;2023-05-29T02:39:36;17.80;;;3.72;;
21148;SDS011;10732;51.472;6.466;2023-05-29T02:42:01;15.25;;;3.63;;
21148;SDS011;10732;51.472;6.466;2023-05-29T02:44:27;13.77;;;3.33;;
21148;SDS011;10732;51.472;6.466;2023-05-29T02:46:52;16.23;;;4.28;;
21148;SDS011;10732;51.472;6.466;2023-05-29T02:49:18;16.73;;;4.00;;
21148;SDS011;10732;51.472;6.466;2023-05-29T02:51:43;12.82;;;3.80;;
21148;SDS011;10732;51.472;6.466;2023-05-29T02:54:09;14.05;;;3.88;;
21148;SDS011;10732;51.472;6.466;2023-05-29T02:56:37;17.10;;;4.07;;
21148;SDS011;10732;51.472;6.466;2023-05-29T02:59:02;12.88;;;4.55;;
21148;SDS011;10732;51.472;6.466;2023-05-29T03:01:28;16.20;;;3.85;;
21148;SDS011;10732;51.472;6.466;2023-05-29T03:03:53;15.80;;;3.67;;
21148;SDS011;10732;51.472;6.466;2023-05-29T03:06:21;17.42;;;4.55;;
21148;SDS011;10732;51.472;6.466;2023-05-29T03:08:46;17.23;;;3.83;;
21148;SDS011;10732;51.472;6.466;2023-05-29T03:11:13;16.83;;;4.10;;
21148;SDS011;10732;51.472;6.466;2023-05-29T03:13:40;15.68;;;4.03;;
21148;SDS011;10732;51.472;6.466;2023-05-29T03:16:06;18.48;;;3.70;;
21148;SDS011;10732;51.472;6.466;2023-05-29T03:18:33;15.50;;;3.88;;
21148;SDS011;10732;51.472;6.466;2023-05-29T03:20:59;12.77;;;4.35;;
21148;SDS011;10732;51.472;6.466;2023-05-29T03:23:24;16.83;;;4.72;;
21148;SDS011;10732;51.472;6.466;2023-05-29T03:25:50;14.85;;;4.35;;
21148;SDS011;10732;51.472;6.466;2023-05-29T03:28:16;16.70;;;4.20;;
21148;SDS011;10732;51.472;6.466;2023-05-29T03:30:41;15.20;;;4.95;;
21148;SDS011;10732;51.472;6.466;2023-05-29T03:33:07;16.20;;;4.43;;
21148;SDS011;10732;51.472;6.466;2023-05-29T03:35:32;20.90;;;4.18;;
21148;SDS011;10732;51.472;6.466;2023-05-29T03:37:58;21.65;;;4.03;;
21148;SDS011;10732;51.472;6.466;2023-05-29T03:40:24;12.73;;;4.35;;
21148;SDS011;10732;51.472;6.466;2023-05-29T03:42:49;20.27;;;4.57;;
21148;SDS011;10732;51.472;6.466;2023-05-29T03:45:15;19.23;;;4.60;;
21148;SDS011;10732;51.472;6.466;2023-05-29T03:47:41;21.25;;;4.63;;
21148;SDS011;10732;51.472;6.466;2023-05-29T03:50:07;11.68;;;3.78;;
21148;SDS011;10732;51.472;6.466;2023-05-29T03:52:33;16.23;;;4.50;;
21148;SDS011;10732;51.472;6.466;2023-05-29T03:54:59;13.63;;;4.30;;
21148;SDS011;10732;51.472;6.466;2023-05-29T03:57:24;15.65;;;4.05;;
21148;SDS011;10732;51.472;6.466;2023-05-29T03:59:51;18.58;;;4.22;;
21148;SDS011;10732;51.472;6.466;2023-05-29T04:02:16;13.27;;;4.55;;
21148;SDS011;10732;51.472;6.466;2023-05-29T04:04:42;18.98;;;4.55;;
21148;SDS011;10732;51.472;6.466;2023-05-29T04:07:07;17.42;;;5.00;;
21148;SDS011;10732;51.472;6.466;2023-05-29T04:09:33;17.70;;;4.70;;
21148;SDS011;10732;51.472;6.466;2023-05-29T04:11:59;18.40;;;4.82;;
21148;SDS011;10732;51.472;6.466;2023-05-29T04:14:27;17.77;;;4.50;;
21148;SDS011;10732;51.472;6.466;2023-05-29T04:16:53;15.70;;;3.67;;
21148;SDS011;10732;51.472;6.466;2023-05-29T04:19:19;21.35;;;4.47;;
21148;SDS011;10732;51.472;6.466;2023-05-29T04:21:45;26.27;;;4.20;;
21148;SDS011;10732;51.472;6.466;2023-05-29T04:24:12;16.70;;;4.50;;
21148;SDS011;10732;51.472;6.466;2023-05-29T04:26:40;23.63;;;4.53;;
21148;SDS011;10732;51.472;6.466;2023-05-29T04:29:06;19.10;;;4.30;;
21148;SDS011;10732;51.472;6.466;2023-05-29T04:31:37;21.02;;;4.63;;
21148;SDS011;10732;51.472;6.466;2023-05-29T04:34:03;19.60;;;4.40;;
21148;SDS011;10732;51.472;6.466;2023-05-29T04:36:31;22.98;;;4.75;;
21148;SDS011;10732;51.472;6.466;2023-05-29T04:39:04;20.80;;;4.32;;
21148;SDS011;10732;51.472;6.466;2023-05-29T04:41:31;15.07;;;3.80;;
21148;SDS011;10732;51.472;6.466;2023-05-29T04:43:57;14.68;;;3.85;;
21148;SDS011;10732;51.472;6.466;2023-05-29T04:46:23;15.50;;;4.38;;
21148;SDS011;10732;51.472;6.466;2023-05-29T04:48:50;15.63;;;4.18;;
21148;SDS011;10732;51.472;6.466;2023-05-29T04:51:19;20.02;;;3.83;;
21148;SDS011;10732;51.472;6.466;2023-05-29T04:53:46;18.17;;;4.80;;
21148;SDS011;10732;51.472;6.466;2023-05-29T04:56:12;19.55;;;4.05;;
21148;SDS011;10732;51.472;6.466;2023-05-29T04:58:38;15.35;;;4.38;;
21148;SDS011;10732;51.472;6.466;2023-05-29T05:01:05;13.38;;;3.58;;
21148;SDS011;10732;51.472;6.466;2023-05-29T05:03:32;11.93;;;3.60;;
21148;SDS011;10732;51.472;6.466;2023-05-29T05:06:02;16.20;;;3.40;;
21148;SDS011;10732;51.472;6.466;2023-05-29T05:08:28;14.35;;;3.70;;
21148;SDS011;10732;51.472;6.466;2023-05-29T05:10:54;14.15;;;3.92;;
21148;SDS011;10732;51.472;6.466;2023-05-29T05:13:20;16.38;;;3.75;;
21148;SDS011;10732;51.472;6.466;2023-05-29T05:15:46;13.65;;;3.45;;
21148;SDS011;10732;51.472;6.466;2023-05-29T05:18:12;16.98;;;3.75;;
21148;SDS011;10732;51.472;6.466;2023-05-29T05:20:37;14.75;;;3.85;;
21148;SDS011;10732;51.472;6.466;2023-05-29T05:23:03;14.25;;;3.85;;
21148;SDS011;10732;51.472;6.466;2023-05-29T05:25:28;15.05;;;3.65;;
21148;SDS011;10732;51.472;6.466;2023-05-29T05:27:54;11.60;;;3.30;;
21148;SDS011;10732;51.472;6.466;2023-05-29T05:30:20;12.65;;;3.83;;
21148;SDS011;10732;51.472;6.466;2023-05-29T05:32:45;15.02;;;4.40;;
21148;SDS011;10732;51.472;6.466;2023-05-29T05:35:11;13.93;;;3.85;;
21148;SDS011;10732;51.472;6.466;2023-05-29T05:37:38;13.75;;;4.07;;
21148;SDS011;10732;51.472;6.466;2023-05-29T05:40:04;15.57;;;4.03;;
21148;SDS011;10732;51.472;6.466;2023-05-29T05:42:31;13.55;;;4.00;;
21148;SDS011;10732;51.472;6.466;2023-05-29T05:44:57;14.80;;;4.18;;
21148;SDS011;10732;51.472;6.466;2023-05-29T05:47:23;15.60;;;3.88;;
21148;SDS011;10732;51.472;6.466;2023-05-29T05:49:48;16.08;;;4.38;;
21148;SDS011;10732;51.472;6.466;2023-05-29T05:52:16;14.65;;;4.15;;
21148;SDS011;10732;51.472;6.466;2023-05-29T05:54:42;16.55;;;3.80;;
21148;SDS011;10732;51.472;6.466;2023-05-29T05:57:08;12.48;;;4.15;;
21148;SDS011;10732;51.472;6.466;2023-05-29T05:59:34;15.93;;;3.75;;
21148;SDS011;10732;51.472;6.466;2023-05-29T06:01:59;15.90;;;3.97;;
21148;SDS011;10732;51.472;6.466;2023-05-29T06:04:25;11.60;;;3.35;;
21148;SDS011;10732;51.472;6.466;2023-05-29T06:06:51;14.50;;;3.80;;
21148;SDS011;10732;51.472;6.466;2023-05-29T06:09:16;17.10;;;3.47;;
21148;SDS011;10732;51.472;6.466;2023-05-29T06:11:42;11.20;;;3.58;;
21148;SDS011;10732;51.472;6.466;2023-05-29T06:14:08;19.27;;;4.10;;
21148;SDS011;10732;51.472;6.466;2023-05-29T06:16:33;13.52;;;3.70;;
21148;SDS011;10732;51.472;6.466;2023-05-29T06:18:59;10.88;;;3.58;;
21148;SDS011;10732;51.472;6.466;2023-05-29T06:21:25;12.23;;;3.80;;
21148;SDS011;10732;51.472;6.466;2023-05-29T06:23:51;12.45;;;3.72;;
21148;SDS011;10732;51.472;6.466;2023-05-29T06:26:16;17.05;;;3.75;;
21148;SDS011;10732;51.472;6.466;2023-05-29T06:28:42;13.30;;;3.75;;
21148;SDS011;10732;51.472;6.466;2023-05-29T06:31:08;13.85;;;3.40;;
21148;SDS011;10732;51.472;6.466;2023-05-29T06:33:33;15.32;;;3.80;;
21148;SDS011;10732;51.472;6.466;2023-05-29T06:35:59;11.13;;;3.60;;
21148;SDS011;10732;51.472;6.466;2023-05-29T06:38:24;14.63;;;3.47;;
21148;SDS011;10732;51.472;6.466;2023-05-29T06:40:50;11.73;;;3.78;;
21148;SDS011;10732;51.472;6.466;2023-05-29T06:43:16;13.13;;;3.53;;
21148;SDS011;10732;51.472;6.466;2023-05-29T06:45:41;11.63;;;3.28;;
21148;SDS011;10732;51.472;6.466;2023-05-29T06:48:07;15.07;;;3.38;;
21148;SDS011;10732;51.472;6.466;2023-05-29T06:50:32;13.70;;;3.60;;
21148;SDS011;10732;51.472;6.466;2023-05-29T06:52:58;12.43;;;4.07;;
21148;SDS011;10732;51.472;6.466;2023-05-29T06:55:24;13.30;;;3.97;;
21148;SDS011;10732;51.472;6.466;2023-05-29T06:57:50;12.45;;;3.47;;
21148;SDS011;10732;51.472;6.466;2023-05-29T07:00:16;13.55;;;3.10;;
21148;SDS011;10732;51.472;6.466;2023-05-29T07:02:42;9.98;;;3.15;;
21148;SDS011;10732;51.472;6.466;2023-05-29T07:05:08;12.80;;;3.33;;
21148;SDS011;10732;51.472;6.466;2023-05-29T07:07:33;12.27;;;3.35;;
21148;SDS011;10732;51.472;6.466;2023-05-29T07:09:59;11.40;;;3.53;;
21148;SDS011;10732;51.472;6.466;2023-05-29T07:12:25;11.25;;;3.55;;
21148;SDS011;10732;51.472;6.466;2023-05-29T07:14:51;12.05;;;3.60;;
21148;SDS011;10732;51.472;6.466;2023-05-29T07:17:16;10.85;;;3.15;;
21148;SDS011;10732;51.472;6.466;2023-05-29T07:19:42;12.95;;;3.40;;
21148;SDS011;10732;51.472;6.466;2023-05-29T07:22:08;12.65;;;3.33;;
21148;SDS011;10732;51.472;6.466;2023-05-29T07:24:33;8.77;;;3.00;;
21148;SDS011;10732;51.472;6.466;2023-05-29T07:26:59;11.60;;;3.38;;
21148;SDS011;10732;51.472;6.466;2023-05-29T07:29:24;9.82;;;3.22;;
21148;SDS011;10732;51.472;6.466;2023-05-29T07:31:50;10.98;;;3.58;;
21148;SDS011;10732;51.472;6.466;2023-05-29T07:34:16;8.98;;;2.92;;
21148;SDS011;10732;51.472;6.466;2023-05-29T07:37:03;12.35;;;3.53;;
21148;SDS011;10732;51.472;6.466;2023-05-29T07:39:33;13.00;;;3.40;;
21148;SDS011;10732;51.472;6.466;2023-05-29T07:42:00;10.57;;;3.08;;
21148;SDS011;10732;51.472;6.466;2023-05-29T07:44:26;10.02;;;3.15;;
21148;SDS011;10732;51.472;6.466;2023-05-29T07:46:52;13.68;;;3.45;;
21148;SDS011;10732;51.472;6.466;2023-05-29T07:49:17;10.18;;;3.60;;
21148;SDS011;10732;51.472;6.466;2023-05-29T07:51:44;9.98;;;3.03;;
21148;SDS011;10732;51.472;6.466;2023-05-29T07:54:10;7.43;;;3.10;;
21148;SDS011;10732;51.472;6.466;2023-05-29T07:56:36;15.93;;;3.75;;
21148;SDS011;10732;51.472;6.466;2023-05-29T07:59:02;16.20;;;3.47;;
21148;SDS011;10732;51.472;6.466;2023-05-29T08:01:28;15.90;;;3.47;;
21148;SDS011;10732;51.472;6.466;2023-05-29T08:03:54;9.65;;;3.05;;
21148;SDS011;10732;51.472;6.466;2023-05-29T08:06:20;9.48;;;2.75;;
21148;SDS011;10732;51.472;6.466;2023-05-29T08:08:45;9.48;;;2.88;;
21148;SDS011;10732;51.472;6.466;2023-05-29T08:11:11;11.68;;;3.22;;
21148;SDS011;10732;51.472;6.466;2023-05-29T08:13:37;11.18;;;3.25;;
21148;SDS011;10732;51.472;6.466;2023-05-29T08:16:03;10.23;;;3.03;;
21148;SDS011;10732;51.472;6.466;2023-05-29T08:18:30;7.22;;;2.95;;
21148;SDS011;10732;51.472;6.466;2023-05-29T08:20:57;9.32;;;3.15;;
21148;SDS011;10732;51.472;6.466;2023-05-29T08:23:23;11.68;;;3.20;;
21148;SDS011;10732;51.472;6.466;2023-05-29T08:25:48;12.48;;;3.58;;
21148;SDS011;10732;51.472;6.466;2023-05-29T08:28:14;7.82;;;2.97;;
21148;SDS011;10732;51.472;6.466;2023-05-29T08:30:40;13.27;;;3.42;;
21148;SDS011;10732;51.472;6.466;2023-05-29T08:33:05;9.85;;;3.55;;
21148;SDS011;10732;51.472;6.466;2023-05-29T08:35:31;10.20;;;2.97;;
21148;SDS011;10732;51.472;6.466;2023-05-29T08:37:58;8.75;;;3.05;;
21148;SDS011;10732;51.472;6.466;2023-05-29T08:40:23;12.93;;;3.70;;
21148;SDS011;10732;51.472;6.466;2023-05-29T08:43:02;11.70;;;3.15;;
21148;SDS011;10732;51.472;6.466;2023-05-29T08:45:35;9.95;;;2.97;;
21148;SDS011;10732;51.472;6.466;2023-05-29T08:48:06;11.02;;;3.35;;
21148;SDS011;10732;51.472;6.466;2023-05-29T08:50:35;9.55;;;3.13;;
21148;SDS011;10732;51.472;6.466;2023-05-29T08:53:01;9.07;;;3.22;;
21148;SDS011;10732;51.472;6.466;2023-05-29T08:55:27;12.55;;;3.40;;
21148;SDS011;10732;51.472;6.466;2023-05-29T08:57:53;9.70;;;3.30;;
21148;SDS011;10732;51.472;6.466;2023-05-29T09:00:18;10.40;;;3.42;;
21148;SDS011;10732;51.472;6.466;2023-05-29T09:02:47;8.43;;;2.85;;
21148;SDS011;10732;51.472;6.466;2023-05-29T09:05:12;11.75;;;3.10;;
21148;SDS011;10732;51.472;6.466;2023-05-29T09:07:38;8.88;;;3.20;;
21148;SDS011;10732;51.472;6.466;2023-05-29T09:10:13;11.25;;;3.20;;
21148;SDS011;10732;51.472;6.466;2023-05-29T09:12:40;10.05;;;2.67;;
21148;SDS011;10732;51.472;6.466;2023-05-29T09:15:27;9.32;;;3.05;;
21148;SDS011;10732;51.472;6.466;2023-05-29T09:17:53;9.15;;;3.10;;
21148;SDS011;10732;51.472;6.466;2023-05-29T09:20:20;12.13;;;3.40;;
21148;SDS011;10732;51.472;6.466;2023-05-29T09:22:57;10.55;;;2.95;;
21148;SDS011;10732;51.472;6.466;2023-05-29T09:25:29;10.10;;;3.22;;
21148;SDS011;10732;51.472;6.466;2023-05-29T09:27:59;9.73;;;3.00;;
21148;SDS011;10732;51.472;6.466;2023-05-29T09:30:34;9.43;;;2.75;;
21148;SDS011;10732;51.472;6.466;2023-05-29T09:33:08;8.40;;;2.95;;
21148;SDS011;10732;51.472;6.466;2023-05-29T09:38:01;10.40;;;3.10;;
21148;SDS011;10732;51.472;6.466;2023-05-29T09:40:34;13.45;;;3.40;;
21148;SDS011;10732;51.472;6.466;2023-05-29T09:43:01;9.77;;;3.00;;
21148;SDS011;10732;51.472;6.466;2023-05-29T09:45:42;8.55;;;3.00;;
21148;SDS011;10732;51.472;6.466;2023-05-29T09:48:15;9.35;;;2.83;;
21148;SDS011;10732;51.472;6.466;2023-05-29T09:50:41;8.05;;;2.90;;
21148;SDS011;10732;51.472;6.466;2023-05-29T09:53:16;10.50;;;3.38;;
21148;SDS011;10732;51.472;6.466;2023-05-29T09:55:47;7.75;;;2.90;;
21148;SDS011;10732;51.472;6.466;2023-05-29T09:58:14;9.63;;;2.95;;
21148;SDS011;10732;51.472;6.466;2023-05-29T10:00:41;10.93;;;3.22;;
21148;SDS011;10732;51.472;6.466;2023-05-29T10:03:07;10.05;;;3.17;;
21148;SDS011;10732;51.472;6.466;2023-05-29T10:05:33;7.63;;;2.63;;
21148;SDS011;10732;51.472;6.466;2023-05-29T10:07:59;7.90;;;2.78;;
21148;SDS011;10732;51.472;6.466;2023-05-29T10:10:27;22.38;;;3.90;;
21148;SDS011;10732;51.472;6.466;2023-05-29T10:12:53;11.13;;;3.42;;
21148;SDS011;10732;51.472;6.466;2023-05-29T10:15:19;9.13;;;2.88;;
21148;SDS011;10732;51.472;6.466;2023-05-29T10:17:50;8.85;;;2.90;;
21148;SDS011;10732;51.472;6.466;2023-05-29T10:20:25;8.07;;;2.97;;
21148;SDS011;10732;51.472;6.466;2023-05-29T10:22:53;8.50;;;2.85;;
21148;SDS011;10732;51.472;6.466;2023-05-29T10:25:21;9.00;;;2.90;;
21148;SDS011;10732;51.472;6.466;2023-05-29T10:27:48;9.52;;;2.90;;
21148;SDS011;10732;51.472;6.466;2023-05-29T10:30:16;11.77;;;3.50;;
21148;SDS011;10732;51.472;6.466;2023-05-29T10:35:39;10.50;;;3.05;;
21148;SDS011;10732;51.472;6.466;2023-05-29T10:38:10;11.00;;;2.78;;
21148;SDS011;10732;51.472;6.466;2023-05-29T10:40:42;8.07;;;3.17;;
21148;SDS011;10732;51.472;6.466;2023-05-29T10:43:08;11.20;;;2.95;;
21148;SDS011;10732;51.472;6.466;2023-05-29T10:50:46;9.07;;;3.00;;
21148;SDS011;10732;51.472;6.466;2023-05-29T10:53:16;9.75;;;2.83;;
21148;SDS011;10732;51.472;6.466;2023-05-29T10:55:43;9.13;;;2.67;;
21148;SDS011;10732;51.472;6.466;2023-05-29T10:58:14;9.52;;;2.90;;
21148;SDS011;10732;51.472;6.466;2023-05-29T11:00:43;9.20;;;2.72;;
21148;SDS011;10732;51.472;6.466;2023-05-29T11:03:19;12.20;;;3.30;;
21148;SDS011;10732;51.472;6.466;2023-05-29T11:05:55;8.23;;;3.13;;
21148;SDS011;10732;51.472;6.466;2023-05-29T11:08:28;9.07;;;4.00;;
21148;SDS011;10732;51.472;6.466;2023-05-29T11:11:00;10.68;;;5.13;;
21148;SDS011;10732;51.472;6.466;2023-05-29T11:18:56;10.95;;;3.35;;
21148;SDS011;10732;51.472;6.466;2023-05-29T11:21:40;9.77;;;3.25;;
21148;SDS011;10732;51.472;6.466;2023-05-29T11:24:26;9.68;;;2.83;;
21148;SDS011;10732;51.472;6.466;2023-05-29T11:26:53;11.63;;;3.80;;
21148;SDS011;10732;51.472;6.466;2023-05-29T11:29:37;11.55;;;3.90;;
21148;SDS011;10732;51.472;6.466;2023-05-29T11:32:05;10.25;;;4.60;;
21148;SDS011;10732;51.472;6.466;2023-05-29T11:34:33;8.32;;;3.25;;
21148;SDS011;10732;51.472;6.466;2023-05-29T11:36:59;10.50;;;3.25;;
21148;SDS011;10732;51.472;6.466;2023-05-29T11:39:25;10.07;;;2.97;;
21148;SDS011;10732;51.472;6.466;2023-05-29T11:41:51;7.40;;;2.70;;
21148;SDS011;10732;51.472;6.466;2023-05-29T11:44:18;9.00;;;3.63;;
21148;SDS011;10732;51.472;6.466;2023-05-29T11:46:43;10.48;;;2.97;;
21148;SDS011;10732;51.472;6.466;2023-05-29T11:49:09;11.75;;;3.33;;
21148;SDS011;10732;51.472;6.466;2023-05-29T11:51:35;7.90;;;3.08;;
21148;SDS011;10732;51.472;6.466;2023-05-29T11:54:01;6.97;;;2.80;;
21148;SDS011;10732;51.472;6.466;2023-05-29T11:56:27;9.55;;;4.13;;
21148;SDS011;10732;51.472;6.466;2023-05-29T11:58:53;7.00;;;2.58;;
21148;SDS011;10732;51.472;6.466;2023-05-29T12:01:21;7.90;;;2.63;;
21148;SDS011;10732;51.472;6.466;2023-05-29T12:03:49;13.43;;;3.10;;
21148;SDS011;10732;51.472;6.466;2023-05-29T12:06:15;10.13;;;3.22;;
21148;SDS011;10732;51.472;6.466;2023-05-29T12:08:40;7.15;;;2.53;;
21148;SDS011;10732;51.472;6.466;2023-05-29T12:11:06;6.90;;;2.80;;
21148;SDS011;10732;51.472;6.466;2023-05-29T12:13:33;12.75;;;3.17;;
21148;SDS011;10732;51.472;6.466;2023-05-29T12:16:00;7.82;;;2.70;;
21148;SDS011;10732;51.472;6.466;2023-05-29T12:18:28;8.02;;;2.92;;
21148;SDS011;10732;51.472;6.466;2023-05-29T12:20:58;8.48;;;2.78;;
21148;SDS011;10732;51.472;6.466;2023-05-29T12:23:28;7.57;;;2.60;;
21148;SDS011;10732;51.472;6.466;2023-05-29T12:25:54;7.60;;;2.80;;
21148;SDS011;10732;51.472;6.466;2023-05-29T12:28:20;9.35;;;2.88;;
21148;SDS011;10732;51.472;6.466;2023-05-29T12:30:46;9.32;;;2.42;;
21148;SDS011;10732;51.472;6.466;2023-05-29T12:36:05;8.32;;;2.78;;
21148;SDS011;10732;51.472;6.466;2023-05-29T12:38:32;12.65;;;2.70;;
21148;SDS011;10732;51.472;6.466;2023-05-29T12:40:58;8.88;;;2.80;;
21148;SDS011;10732;51.472;6.466;2023-05-29T12:43:23;7.50;;;2.50;;
21148;SDS011;10732;51.472;6.466;2023-05-29T12:45:55;8.27;;;2.90;;
21148;SDS011;10732;51.472;6.466;2023-05-29T12:48:25;6.25;;;2.38;;
21148;SDS011;10732;51.472;6.466;2023-05-29T12:50:51;8.18;;;2.58;;
21148;SDS011;10732;51.472;6.466;2023-05-29T12:53:17;9.85;;;3.08;;
21148;SDS011;10732;51.472;6.466;2023-05-29T12:55:43;10.63;;;2.83;;
21148;SDS011;10732;51.472;6.466;2023-05-29T12:58:11;11.18;;;2.78;;
21148;SDS011;10732;51.472;6.466;2023-05-29T13:00:39;9.02;;;2.60;;
21148;SDS011;10732;51.472;6.466;2023-05-29T13:03:06;10.02;;;2.95;;
21148;SDS011;10732;51.472;6.466;2023-05-29T13:05:32;10.68;;;2.72;;
21148;SDS011;10732;51.472;6.466;2023-05-29T13:07:58;7.10;;;2.50;;
21148;SDS011;10732;51.472;6.466;2023-05-29T13:10:25;7.05;;;2.67;;
21148;SDS011;10732;51.472;6.466;2023-05-29T13:12:52;5.32;;;2.15;;
21148;SDS011;10732;51.472;6.466;2023-05-29T13:15:24;6.40;;;2.72;;
21148;SDS011;10732;51.472;6.466;2023-05-29T13:17:51;9.18;;;3.60;;
21148;SDS011;10732;51.472;6.466;2023-05-29T13:20:18;9.80;;;3.00;;
21148;SDS011;10732;51.472;6.466;2023-05-29T13:22:44;7.35;;;2.75;;
21148;SDS011;10732;51.472;6.466;2023-05-29T13:25:11;7.85;;;3.03;;
21148;SDS011;10732;51.472;6.466;2023-05-29T13:27:39;7.70;;;4.57;;
21148;SDS011;10732;51.472;6.466;2023-05-29T13:30:07;9.55;;;2.50;;
21148;SDS011;10732;51.472;6.466;2023-05-29T13:32:33;6.93;;;2.90;;
21148;SDS011;10732;51.472;6.466;2023-05-29T13:34:59;7.75;;;2.45;;
21148;SDS011;10732;51.472;6.466;2023-05-29T13:37:25;15.20;;;8.52;;
21148;SDS011;10732;51.472;6.466;2023-05-29T13:39:52;10.25;;;4.05;;
21148;SDS011;10732;51.472;6.466;2023-05-29T13:42:18;7.30;;;3.08;;
21148;SDS011;10732;51.472;6.466;2023-05-29T13:44:44;9.15;;;3.72;;
21148;SDS011;10732;51.472;6.466;2023-05-29T13:47:09;8.43;;;2.78;;
21148;SDS011;10732;51.472;6.466;2023-05-29T13:49:35;10.70;;;3.25;;
21148;SDS011;10732;51.472;6.466;2023-05-29T13:52:01;8.98;;;3.60;;
21148;SDS011;10732;51.472;6.466;2023-05-29T13:54:28;11.70;;;3.30;;
21148;SDS011;10732;51.472;6.466;2023-05-29T13:56:56;11.88;;;2.85;;
21148;SDS011;10732;51.472;6.466;2023-05-29T13:59:22;7.10;;;2.78;;
21148;SDS011;10732;51.472;6.466;2023-05-29T14:01:48;12.40;;;3.00;;
21148;SDS011;10732;51.472;6.466;2023-05-29T14:04:14;9.70;;;2.88;;
21148;SDS011;10732;51.472;6.466;2023-05-29T14:06:40;6.35;;;2.88;;
21148;SDS011;10732;51.472;6.466;2023-05-29T14:09:06;8.20;;;2.45;;
21148;SDS011;10732;51.472;6.466;2023-05-29T14:11:35;11.43;;;3.08;;
21148;SDS011;10732;51.472;6.466;2023-05-29T14:14:02;8.25;;;2.88;;
21148;SDS011;10732;51.472;6.466;2023-05-29T14:16:28;11.77;;;3.03;;
21148;SDS011;10732;51.472;6.466;2023-05-29T14:18:54;10.32;;;3.20;;
21148;SDS011;10732;51.472;6.466;2023-05-29T14:21:19;9.93;;;3.20;;
21148;SDS011;10732;51.472;6.466;2023-05-29T14:23:46;7.82;;;2.65;;
21148;SDS011;10732;51.472;6.466;2023-05-29T14:26:11;10.38;;;2.72;;
21148;SDS011;10732;51.472;6.466;2023-05-29T14:28:37;9.90;;;3.05;;
21148;SDS011;10732;51.472;6.466;2023-05-29T14:31:04;12.57;;;3.08;;
21148;SDS011;10732;51.472;6.466;2023-05-29T14:33:30;6.25;;;2.72;;
21148;SDS011;10732;51.472;6.466;2023-05-29T14:35:56;7.90;;;2.97;;
21148;SDS011;10732;51.472;6.466;2023-05-29T14:38:22;9.82;;;2.92;;
21148;SDS011;10732;51.472;6.466;2023-05-29T14:40:48;12.48;;;2.80;;
21148;SDS011;10732;51.472;6.466;2023-05-29T14:43:13;7.32;;;2.75;;
21148;SDS011;10732;51.472;6.466;2023-05-29T14:45:39;7.00;;;2.92;;
21148;SDS011;10732;51.472;6.466;2023-05-29T14:48:04;7.05;;;2.78;;
21148;SDS011;10732;51.472;6.466;2023-05-29T14:50:30;10.13;;;3.08;;
21148;SDS011;10732;51.472;6.466;2023-05-29T14:52:55;10.80;;;2.70;;
21148;SDS011;10732;51.472;6.466;2023-05-29T14:55:21;8.40;;;3.35;;
21148;SDS011;10732;51.472;6.466;2023-05-29T14:57:46;11.32;;;3.17;;
21148;SDS011;10732;51.472;6.466;2023-05-29T15:00:12;10.82;;;3.40;;
21148;SDS011;10732;51.472;6.466;2023-05-29T15:02:39;7.18;;;2.75;;
21148;SDS011;10732;51.472;6.466;2023-05-29T15:05:04;9.93;;;3.40;;
21148;SDS011;10732;51.472;6.466;2023-05-29T15:07:31;7.55;;;3.00;;